Time;durP1;ratioP1;P1;durP2;ratioP2;P2;SDS_P1;SDS_P2;PMS_P1;PMS_P2;Temp;Humidity;BMP_temperature;BMP_pressure;BME280_temperature;BME280_humidity;BME280_pressure;Samples;Min_cycle;Max_cycle;Signal;HPM_P1;HPM_P2
2021/03/11 00:00:15;;;;;;;45.97;27.30;;;7.50;74.50;;;;;;5023738;28;20482;-74
2021/03/11 00:02:41;;;;;;;24.98;14.77;;;7.40;76.30;;;;;;5020950;28;20041;-74
2021/03/11 00:05:11;;;;;;;57.47;31.92;;;7.30;77.50;;;;;;5024363;28;20094;-74
2021/03/11 00:07:37;;;;;;;39.63;22.98;;;7.30;78.60;;;;;;5014080;28;20030;-74
2021/03/11 00:10:06;;;;;;;43.80;23.55;;;7.20;81.60;;;;;;5013543;28;20040;-73
2021/03/11 00:12:32;;;;;;;31.95;17.77;;;7.10;82.70;;;;;;5013083;28;20050;-74
2021/03/11 00:14:58;;;;;;;23.33;13.70;;;7.10;83.10;;;;;;5013500;28;20034;-73
2021/03/11 00:17:25;;;;;;;44.05;23.63;;;7.20;83.50;;;;;;5012864;28;20037;-74
2021/03/11 00:19:51;;;;;;;51.28;26.00;;;7.00;86.00;;;;;;5025164;28;20033;-74
2021/03/11 00:22:17;;;;;;;40.20;21.02;;;6.90;89.60;;;;;;5013166;28;20041;-74
2021/03/11 00:24:43;;;;;;;41.10;21.73;;;6.90;90.80;;;;;;5014045;28;20033;-74
2021/03/11 00:27:10;;;;;;;48.95;27.70;;;6.90;91.90;;;;;;5024921;28;20402;-74
2021/03/11 00:29:36;;;;;;;23.63;15.65;;;6.80;93.10;;;;;;5032437;28;20455;-75
2021/03/11 00:32:02;;;;;;;39.17;20.48;;;6.80;93.80;;;;;;5030929;28;20060;-74
2021/03/11 00:34:28;;;;;;;40.28;20.30;;;6.80;94.60;;;;;;5032164;28;20034;-75
2021/03/11 00:36:54;;;;;;;54.58;28.60;;;6.80;94.60;;;;;;5017241;28;20037;-74
2021/03/11 00:39:21;;;;;;;27.92;16.20;;;6.80;95.00;;;;;;5021800;28;20057;-75
2021/03/11 00:41:47;;;;;;;24.88;14.90;;;6.90;94.90;;;;;;5025788;28;20041;-73
2021/03/11 00:44:13;;;;;;;28.88;19.13;;;6.90;95.10;;;;;;5013310;28;20061;-75
2021/03/11 00:46:40;;;;;;;20.85;11.88;;;6.90;95.70;;;;;;5013527;28;20073;-74
2021/03/11 00:49:06;;;;;;;22.23;15.40;;;6.90;95.40;;;;;;5012704;28;20037;-74
2021/03/11 00:51:33;;;;;;;18.63;10.68;;;6.90;96.00;;;;;;5013286;28;20050;-74
2021/03/11 00:54:00;;;;;;;15.48;9.65;;;6.90;96.00;;;;;;5011553;28;20440;-73
2021/03/11 00:56:26;;;;;;;21.42;13.45;;;7.00;95.30;;;;;;5026111;28;20389;-74
2021/03/11 00:58:53;;;;;;;25.13;13.23;;;7.00;95.90;;;;;;5014713;28;20046;-75
2021/03/11 01:01:19;;;;;;;54.15;35.60;;;6.90;96.00;;;;;;5011649;28;20403;-74
2021/03/11 01:03:51;;;;;;;17.55;13.45;;;6.90;96.30;;;;;;5013187;28;20042;-74
2021/03/11 01:06:18;;;;;;;33.15;27.00;;;6.90;96.20;;;;;;5030964;28;20037;-74
2021/03/11 01:08:45;;;;;;;22.85;18.52;;;6.90;95.90;;;;;;5030320;28;20037;-73
2021/03/11 01:11:12;;;;;;;19.23;12.57;;;6.90;95.90;;;;;;5023692;28;20394;-74
2021/03/11 01:13:38;;;;;;;17.10;12.20;;;6.90;95.90;;;;;;5014560;28;20030;-74
2021/03/11 01:16:05;;;;;;;17.70;10.55;;;6.80;96.10;;;;;;5022655;28;20498;-74
2021/03/11 01:18:31;;;;;;;15.10;8.98;;;6.80;95.70;;;;;;5018630;28;20041;-75
2021/03/11 01:20:57;;;;;;;14.43;8.63;;;6.80;95.70;;;;;;5013343;28;20084;-75
2021/03/11 01:23:24;;;;;;;14.63;8.38;;;6.80;95.20;;;;;;5024725;28;20056;-74
2021/03/11 01:25:50;;;;;;;13.98;8.60;;;6.90;95.20;;;;;;5022926;28;20038;-74
2021/03/11 01:28:16;;;;;;;12.45;8.82;;;6.80;95.20;;;;;;5018401;28;20026;-74
2021/03/11 01:30:42;;;;;;;14.35;8.70;;;6.90;95.00;;;;;;5035266;28;20029;-74
2021/03/11 01:33:09;;;;;;;15.57;7.82;;;6.80;95.40;;;;;;5024366;28;20045;-74
2021/03/11 01:35:35;;;;;;;13.43;9.20;;;6.80;95.40;;;;;;5017007;28;20046;-75
2021/03/11 01:38:01;;;;;;;14.50;9.15;;;6.90;95.30;;;;;;5021122;28;20475;-74
2021/03/11 01:40:27;;;;;;;15.70;9.45;;;6.90;95.30;;;;;;5034647;28;20036;-75
2021/03/11 01:42:53;;;;;;;12.82;8.38;;;6.90;95.80;;;;;;5017677;28;20049;-75
2021/03/11 01:45:20;;;;;;;11.82;8.35;;;6.90;95.80;;;;;;5031868;28;20033;-76
2021/03/11 01:47:47;;;;;;;16.88;8.95;;;6.90;95.40;;;;;;5033896;28;20037;-74
2021/03/11 01:50:13;;;;;;;12.80;8.43;;;6.90;95.40;;;;;;5034949;28;20026;-75
2021/03/11 01:52:40;;;;;;;15.20;9.00;;;6.90;95.40;;;;;;5033513;28;20036;-75
2021/03/11 01:55:08;;;;;;;13.50;8.63;;;7.00;95.10;;;;;;5016042;28;20057;-74
2021/03/11 01:57:35;;;;;;;16.60;8.82;;;7.00;95.00;;;;;;5016305;28;20026;-75
2021/03/11 02:00:05;;;;;;;14.25;8.57;;;7.00;95.30;;;;;;5024674;28;20042;-74
2021/03/11 02:02:45;;;;;;;15.93;8.90;;;7.00;95.90;;;;;;5022518;28;20044;-75
2021/03/11 02:05:14;;;;;;;14.38;8.43;;;6.90;96.60;;;;;;5015851;28;20041;-75
2021/03/11 02:07:41;;;;;;;15.68;9.82;;;6.80;96.90;;;;;;5016796;28;20468;-75
2021/03/11 02:10:10;;;;;;;16.00;9.05;;;6.80;96.90;;;;;;5015573;28;20034;-73
2021/03/11 02:12:40;;;;;;;13.55;7.82;;;6.80;97.00;;;;;;5015653;28;20041;-75
2021/03/11 02:15:49;;;;;;;20.77;11.38;;;6.80;96.80;;;;;;5031537;28;20037;-74
2021/03/11 02:18:41;;;;;;;12.82;8.32;;;6.90;96.40;;;;;;5015172;28;20046;-74
2021/03/11 02:21:10;;;;;;;14.70;9.43;;;6.90;96.40;;;;;;5015996;28;20487;-74
2021/03/11 02:24:06;;;;;;;13.38;7.35;;;6.90;96.70;;;;;;5021007;28;20025;-74
2021/03/11 02:27:05;;;;;;;11.88;7.65;;;6.90;95.90;;;;;;5020901;28;20048;-75
2021/03/11 02:29:35;;;;;;;11.75;7.00;;;7.00;96.20;;;;;;5015583;28;20030;-74
2021/03/11 02:32:03;;;;;;;12.25;7.20;;;7.00;96.70;;;;;;5015611;28;20041;-74
2021/03/11 02:34:36;;;;;;;11.80;7.68;;;6.90;95.70;;;;;;5027415;28;20049;-74
2021/03/11 02:37:11;;;;;;;11.95;8.68;;;7.00;95.70;;;;;;5019877;28;20026;-73
2021/03/11 02:39:43;;;;;;;12.45;7.68;;;7.00;96.00;;;;;;5030318;28;20412;-74
2021/03/11 02:42:10;;;;;;;14.07;7.97;;;6.90;95.70;;;;;;5022402;28;20034;-73
2021/03/11 02:44:38;;;;;;;10.40;6.82;;;6.90;95.80;;;;;;5033246;28;20053;-75
2021/03/11 02:47:06;;;;;;;13.60;7.82;;;7.00;95.60;;;;;;5028109;28;20372;-75
2021/03/11 02:49:33;;;;;;;11.68;7.60;;;7.00;95.80;;;;;;5025985;28;20056;-75
2021/03/11 02:52:00;;;;;;;13.18;7.10;;;7.00;96.10;;;;;;5019335;28;20476;-74
2021/03/11 02:54:27;;;;;;;14.27;7.97;;;7.00;95.40;;;;;;5014691;28;20030;-74
2021/03/11 02:56:57;;;;;;;15.68;7.93;;;7.00;95.50;;;;;;5014137;28;20036;-74
2021/03/11 02:59:24;;;;;;;12.00;7.30;;;7.10;94.60;;;;;;5014473;28;20053;-74
2021/03/11 03:01:53;;;;;;;10.30;6.90;;;7.20;94.30;;;;;;5015280;28;20404;-75
2021/03/11 03:04:21;;;;;;;11.63;6.35;;;7.20;93.40;;;;;;5015150;28;20034;-74
2021/03/11 03:06:48;;;;;;;11.65;7.20;;;7.40;92.40;;;;;;5014802;28;20030;-74
2021/03/11 03:09:17;;;;;;;53.15;28.02;;;7.50;91.70;;;;;;5014532;28;20045;-75
2021/03/11 03:11:43;;;;;;;85.35;47.33;;;7.60;91.30;;;;;;5014901;28;20459;-75
2021/03/11 03:14:11;;;;;;;99.03;46.45;;;7.60;91.60;;;;;;5014515;28;20416;-75
2021/03/11 03:16:38;;;;;;;68.72;32.83;;;7.60;90.80;;;;;;5014978;28;20029;-75
2021/03/11 03:19:05;;;;;;;87.75;41.90;;;7.70;90.20;;;;;;5014482;28;20036;-74
2021/03/11 03:21:32;;;;;;;22.13;10.85;;;7.80;89.50;;;;;;5014703;28;20038;-75
2021/03/11 03:23:59;;;;;;;93.63;41.13;;;7.90;88.20;;;;;;5015082;28;20034;-74
2021/03/11 03:26:25;;;;;;;138.43;55.10;;;7.90;87.50;;;;;;5014367;28;20030;-74
2021/03/11 03:28:51;;;;;;;74.50;32.03;;;8.10;86.20;;;;;;5014946;28;20021;-74
2021/03/11 03:31:18;;;;;;;60.85;27.35;;;8.10;85.60;;;;;;5014117;28;20044;-74
2021/03/11 03:33:44;;;;;;;64.90;24.88;;;8.10;86.60;;;;;;5016730;28;20033;-74
2021/03/11 03:36:10;;;;;;;29.02;13.45;;;8.10;86.70;;;;;;5019573;28;20050;-75
2021/03/11 03:38:37;;;;;;;22.02;12.00;;;8.30;85.80;;;;;;5024488;28;20036;-74
2021/03/11 03:41:04;;;;;;;27.65;13.88;;;8.30;86.90;;;;;;5032141;28;20494;-74
2021/03/11 03:43:33;;;;;;;22.50;13.05;;;8.30;86.00;;;;;;5033024;28;20049;-74
2021/03/11 03:46:09;;;;;;;17.85;10.52;;;8.30;86.10;;;;;;5027006;28;20045;-74
2021/03/11 03:48:42;;;;;;;18.02;10.32;;;8.40;86.00;;;;;;5030311;28;20048;-74
2021/03/11 03:51:10;;;;;;;19.05;12.07;;;8.40;86.30;;;;;;5012764;28;20030;-74
2021/03/11 03:53:43;;;;;;;23.23;12.02;;;8.40;86.90;;;;;;5027681;28;20038;-75
2021/03/11 03:56:25;;;;;;;12.55;7.78;;;8.40;87.00;;;;;;5013792;28;20041;-74
2021/03/11 03:58:58;;;;;;;13.18;8.73;;;8.50;87.10;;;;;;5041635;28;20407;-74
2021/03/11 04:01:29;;;;;;;14.10;8.73;;;8.50;87.70;;;;;;5013486;28;20038;-74
2021/03/11 04:03:59;;;;;;;18.52;10.77;;;8.50;88.30;;;;;;5013491;28;20387;-74
2021/03/11 04:06:26;;;;;;;13.45;8.15;;;8.50;88.70;;;;;;5041008;28;20041;-75
2021/03/11 04:08:53;;;;;;;11.82;7.72;;;8.50;89.30;;;;;;5014133;28;20460;-75
2021/03/11 04:11:19;;;;;;;15.48;8.57;;;8.50;89.20;;;;;;5013646;28;20049;-75
2021/03/11 04:13:47;;;;;;;11.85;6.82;;;8.50;89.20;;;;;;5013837;28;20060;-74
2021/03/11 04:16:16;;;;;;;10.68;7.32;;;8.50;89.50;;;;;;5021871;28;20044;-75
2021/03/11 04:18:42;;;;;;;12.35;7.68;;;8.60;89.90;;;;;;5017780;28;20517;-75
2021/03/11 04:21:09;;;;;;;11.55;7.22;;;8.50;90.00;;;;;;5017040;28;20041;-75
2021/03/11 04:23:37;;;;;;;20.33;13.52;;;8.50;90.40;;;;;;5028855;28;20380;-75
2021/03/11 04:26:05;;;;;;;12.88;7.72;;;8.50;90.50;;;;;;5028660;28;20053;-75
2021/03/11 04:28:33;;;;;;;15.43;10.38;;;8.50;90.40;;;;;;5027966;28;20030;-75
2021/03/11 04:31:00;;;;;;;12.07;8.52;;;8.50;90.60;;;;;;5014832;28;20041;-75
2021/03/11 04:33:27;;;;;;;14.77;10.13;;;8.50;90.60;;;;;;5032528;28;20068;-75
2021/03/11 04:35:54;;;;;;;12.50;8.55;;;8.60;90.50;;;;;;5017265;28;20048;-75
2021/03/11 04:38:20;;;;;;;10.35;7.07;;;8.50;91.00;;;;;;5028563;28;20053;-75
2021/03/11 04:40:47;;;;;;;11.18;6.85;;;8.40;91.10;;;;;;5016212;28;20040;-75
2021/03/11 04:43:14;;;;;;;15.70;12.77;;;8.50;91.30;;;;;;5029813;28;20041;-74
2021/03/11 04:45:47;;;;;;;12.13;8.02;;;8.40;91.70;;;;;;5016881;28;20049;-75
2021/03/11 04:48:14;;;;;;;10.25;6.53;;;8.40;91.90;;;;;;5013260;28;20053;-75
2021/03/11 04:50:43;;;;;;;14.93;6.40;;;8.40;92.10;;;;;;5013539;28;20022;-75
2021/03/11 04:53:10;;;;;;;9.43;5.65;;;8.40;92.40;;;;;;5012728;28;20037;-75
2021/03/11 04:55:37;;;;;;;12.00;6.85;;;8.40;92.80;;;;;;5018760;28;20033;-75
2021/03/11 04:58:03;;;;;;;13.25;6.10;;;8.40;93.00;;;;;;5031445;28;20466;-75
2021/03/11 05:00:31;;;;;;;10.85;6.35;;;8.50;92.80;;;;;;5018422;28;20030;-76
2021/03/11 05:03:00;;;;;;;12.32;6.47;;;8.60;92.90;;;;;;5012536;28;20049;-75
2021/03/11 05:05:39;;;;;;;11.60;6.28;;;8.60;93.00;;;;;;5013420;28;20403;-76
2021/03/11 05:08:06;;;;;;;11.55;6.88;;;8.60;93.00;;;;;;5022774;28;20052;-75
2021/03/11 05:10:33;;;;;;;9.93;6.07;;;8.60;93.10;;;;;;5031222;28;20383;-75
2021/03/11 05:12:59;;;;;;;12.40;6.75;;;8.60;93.40;;;;;;5030494;28;20029;-75
2021/03/11 05:15:26;;;;;;;10.85;6.47;;;8.60;93.50;;;;;;5025020;28;20253;-75
2021/03/11 05:17:53;;;;;;;9.23;6.28;;;8.60;93.50;;;;;;5020345;28;20033;-75
2021/03/11 05:20:20;;;;;;;9.65;5.53;;;8.60;93.30;;;;;;5023565;28;20037;-76
2021/03/11 05:22:46;;;;;;;9.30;5.45;;;8.70;93.20;;;;;;5026071;28;20048;-76
2021/03/11 05:25:13;;;;;;;9.57;5.55;;;8.70;93.20;;;;;;5013458;28;20025;-74
2021/03/11 05:27:40;;;;;;;7.35;4.93;;;8.70;93.00;;;;;;5017997;28;20478;-74
2021/03/11 05:30:12;;;;;;;7.72;4.75;;;8.80;92.90;;;;;;5030137;28;20029;-74
2021/03/11 05:32:38;;;;;;;8.45;4.80;;;8.80;93.00;;;;;;5017981;28;20041;-75
2021/03/11 05:35:06;;;;;;;7.38;4.25;;;8.80;92.80;;;;;;5018729;28;20038;-74
2021/03/11 05:37:35;;;;;;;8.35;5.38;;;8.90;92.70;;;;;;5031820;28;20041;-74
2021/03/11 05:40:02;;;;;;;11.23;5.35;;;8.90;92.80;;;;;;5024791;28;20034;-74
2021/03/11 05:42:29;;;;;;;12.00;7.82;;;8.80;92.80;;;;;;5035933;28;20040;-74
2021/03/11 05:44:56;;;;;;;14.95;8.55;;;8.90;92.60;;;;;;5012792;28;20490;-75
2021/03/11 05:47:23;;;;;;;10.70;5.47;;;8.90;92.60;;;;;;5022016;28;20034;-74
2021/03/11 05:49:50;;;;;;;11.02;6.55;;;8.90;92.60;;;;;;5013318;28;20373;-75
2021/03/11 05:52:16;;;;;;;10.32;6.65;;;8.90;92.60;;;;;;5012080;28;20672;-74
2021/03/11 05:54:42;;;;;;;8.80;6.32;;;8.90;92.60;;;;;;5012301;28;20380;-75
2021/03/11 05:57:09;;;;;;;7.78;4.40;;;8.90;92.90;;;;;;5017208;28;20041;-74
2021/03/11 05:59:35;;;;;;;13.80;6.80;;;8.90;92.90;;;;;;5022094;28;20026;-74
2021/03/11 06:02:06;;;;;;;9.35;5.55;;;8.90;92.80;;;;;;5024496;28;20498;-74
2021/03/11 06:04:36;;;;;;;21.27;11.05;;;8.90;92.80;;;;;;5029165;28;20038;-74
2021/03/11 06:07:05;;;;;;;14.65;6.65;;;8.90;92.80;;;;;;5019488;28;20038;-74
2021/03/11 06:09:32;;;;;;;15.35;8.27;;;8.90;92.70;;;;;;5019088;28;20056;-75
2021/03/11 06:11:59;;;;;;;20.58;12.77;;;9.00;92.60;;;;;;5016037;28;20042;-76
2021/03/11 06:14:26;;;;;;;17.02;10.50;;;8.90;92.70;;;;;;5027152;28;20029;-76
2021/03/11 06:17:03;;;;;;;9.82;6.18;;;8.90;92.80;;;;;;5033930;28;20029;-76
2021/03/11 06:19:29;;;;;;;8.20;4.78;;;8.90;92.90;;;;;;5015396;28;20384;-75
2021/03/11 06:21:56;;;;;;;7.72;4.45;;;9.00;93.00;;;;;;5030329;28;20380;-76
2021/03/11 06:24:22;;;;;;;8.75;4.68;;;9.00;93.00;;;;;;5030395;28;20045;-75
2021/03/11 06:26:49;;;;;;;7.88;4.45;;;9.00;93.40;;;;;;5025098;28;20093;-76
2021/03/11 06:29:23;;;;;;;9.25;4.63;;;9.00;93.60;;;;;;5026138;28;20029;-76
2021/03/11 06:31:57;;;;;;;6.78;3.35;;;9.00;93.60;;;;;;5022362;28;20052;-76
2021/03/11 06:34:23;;;;;;;11.35;6.38;;;9.10;93.70;;;;;;5017595;28;20038;-77
2021/03/11 06:36:50;;;;;;;7.10;4.65;;;9.10;93.80;;;;;;5019343;28;20033;-76
2021/03/11 06:39:24;;;;;;;8.07;4.28;;;9.20;93.90;;;;;;5019491;28;20045;-76
2021/03/11 06:41:50;;;;;;;10.85;3.88;;;9.20;94.10;;;;;;5015451;28;20038;-74
2021/03/11 06:44:17;;;;;;;14.00;4.70;;;9.20;94.00;;;;;;5020218;28;20054;-74
2021/03/11 06:46:58;;;;;;;7.05;4.35;;;9.30;94.20;;;;;;5015219;28;20443;-75
2021/03/11 06:49:24;;;;;;;9.55;4.20;;;9.30;94.40;;;;;;5014998;28;20041;-76
2021/03/11 06:52:10;;;;;;;7.88;4.72;;;9.30;94.50;;;;;;5016046;28;20042;-76
2021/03/11 06:54:59;;;;;;;11.75;6.00;;;9.30;94.50;;;;;;5034097;28;20044;-74
2021/03/11 06:57:27;;;;;;;8.57;5.03;;;9.50;94.30;;;;;;5014467;28;20034;-75
2021/03/11 06:59:54;;;;;;;11.23;7.07;;;9.50;94.30;;;;;;5015381;28;20054;-75
2021/03/11 07:02:24;;;;;;;11.93;7.47;;;9.50;94.40;;;;;;5015023;28;20056;-75
2021/03/11 07:04:51;;;;;;;8.02;4.57;;;9.50;94.30;;;;;;5034643;28;20064;-76
2021/03/11 07:07:23;;;;;;;8.20;4.70;;;9.40;94.40;;;;;;5015752;28;20041;-75
2021/03/11 07:09:53;;;;;;;5.78;3.80;;;9.40;94.20;;;;;;5027779;28;20034;-74
2021/03/11 07:12:19;;;;;;;6.63;4.47;;;9.40;94.00;;;;;;5015035;28;20045;-74
2021/03/11 07:14:48;;;;;;;14.18;9.77;;;9.40;93.90;;;;;;5014883;28;20037;-75
2021/03/11 07:17:23;;;;;;;8.70;5.75;;;9.40;93.40;;;;;;5014859;28;20030;-74
2021/03/11 07:20:25;;;;;;;9.13;3.45;;;9.40;93.30;;;;;;5014596;28;20030;-75
2021/03/11 07:23:09;;;;;;;5.57;3.65;;;9.30;93.40;;;;;;5027856;28;20048;-75
2021/03/11 07:25:43;;;;;;;8.35;3.88;;;9.40;93.50;;;;;;5023100;28;20037;-74
2021/03/11 07:28:26;;;;;;;7.20;3.25;;;9.30;93.80;;;;;;5014884;28;20042;-73
2021/03/11 07:30:57;;;;;;;7.40;3.40;;;9.40;94.30;;;;;;5014717;28;20057;-73
2021/03/11 07:33:24;;;;;;;;;;;9.40;94.50;;;;;;5014511;28;20038;-73
2021/03/11 07:35:53;;;;;;;6.38;3.30;;;9.40;94.60;;;;;;5014518;28;19914;-76
2021/03/11 07:38:24;;;;;;;6.40;4.10;;;9.50;94.70;;;;;;5013967;28;20041;-75
2021/03/11 07:40:51;;;;;;;;;;;9.50;95.00;;;;;;5014881;28;20029;-75
2021/03/11 07:43:18;;;;;;;8.63;3.17;;;9.50;95.30;;;;;;5014898;28;20363;-74
2021/03/11 07:45:44;;;;;;;6.38;3.45;;;9.50;95.40;;;;;;5013990;28;20034;-74
2021/03/11 07:48:15;;;;;;;5.68;3.47;;;9.50;95.50;;;;;;5027529;28;20044;-74
2021/03/11 07:50:43;;;;;;;5.95;2.90;;;9.50;95.50;;;;;;5022079;28;20397;-74
2021/03/11 07:53:11;;;;;;;5.82;3.20;;;9.60;95.80;;;;;;5024834;28;20052;-74
2021/03/11 07:55:38;;;;;;;5.25;3.50;;;9.60;95.90;;;;;;5015628;28;20033;-75
2021/03/11 07:58:13;;;;;;;7.63;3.75;;;9.70;96.10;;;;;;5032235;28;20490;-73
2021/03/11 08:00:40;;;;;;;7.03;3.30;;;9.70;96.30;;;;;;5020373;28;20045;-74
2021/03/11 08:03:11;;;;;;;5.38;3.25;;;9.60;96.40;;;;;;5021244;28;20041;-74
2021/03/11 08:05:38;;;;;;;6.68;3.40;;;9.60;96.70;;;;;;5023924;28;20057;-75
2021/03/11 08:08:28;;;;;;;7.68;3.92;;;9.70;96.90;;;;;;5031726;28;20036;-74
2021/03/11 08:10:57;;;;;;;8.48;4.07;;;9.70;97.00;;;;;;5032222;28;20026;-75
2021/03/11 08:13:35;;;;;;;6.70;4.15;;;9.80;97.10;;;;;;5019957;28;20049;-74
2021/03/11 08:16:24;;;;;;;10.20;4.43;;;9.80;97.30;;;;;;5012642;28;20124;-73
2021/03/11 08:18:51;;;;;;;6.47;3.97;;;9.90;97.20;;;;;;5014094;28;20481;-74
2021/03/11 08:21:23;;;;;;;8.07;4.63;;;10.00;97.20;;;;;;5013115;28;20495;-74
2021/03/11 08:23:51;;;;;;;8.57;4.78;;;10.10;97.20;;;;;;5014324;28;20042;-74
2021/03/11 08:26:42;;;;;;;9.00;5.00;;;10.20;97.20;;;;;;5013482;28;20037;-74
2021/03/11 08:29:15;;;;;;;6.78;4.18;;;10.40;97.40;;;;;;5028376;28;20030;-75
2021/03/11 08:31:42;;;;;;;9.60;4.10;;;10.50;97.40;;;;;;5022036;28;20399;-73
2021/03/11 08:34:08;;;;;;;6.32;4.00;;;10.60;97.20;;;;;;5013998;28;20054;-74
2021/03/11 08:36:37;;;;;;;9.27;4.40;;;10.70;97.00;;;;;;5024947;28;20041;-75
2021/03/11 08:39:24;;;;;;;6.60;4.47;;;10.90;97.00;;;;;;5024229;28;20046;-75
2021/03/11 08:41:51;;;;;;;9.40;5.30;;;10.90;97.20;;;;;;5018449;28;20036;-73
2021/03/11 08:44:43;;;;;;;6.22;3.38;;;10.90;97.40;;;;;;5016022;28;20386;-73
2021/03/11 08:47:11;;;;;;;6.78;4.38;;;11.00;97.30;;;;;;5026415;28;20030;-74
2021/03/11 08:49:39;;;;;;;8.63;4.90;;;11.00;97.30;;;;;;5022215;28;20022;-73
2021/03/11 08:52:06;;;;;;;7.93;4.65;;;10.90;97.40;;;;;;5024162;28;20041;-73
2021/03/11 08:54:33;;;;;;;6.72;4.03;;;10.80;97.60;;;;;;5024578;28;20034;-74
2021/03/11 08:56:59;;;;;;;6.10;4.03;;;10.80;97.80;;;;;;5012921;28;20025;-74
2021/03/11 08:59:43;;;;;;;7.85;3.97;;;10.90;97.90;;;;;;5012624;28;20494;-73
2021/03/11 09:02:31;;;;;;;8.85;4.13;;;11.00;97.90;;;;;;5013351;28;20034;-73
2021/03/11 09:04:58;;;;;;;7.40;3.50;;;11.10;98.20;;;;;;5012850;28;20037;-74
2021/03/11 09:07:29;;;;;;;4.97;3.05;;;11.10;98.50;;;;;;5026638;28;20034;-73
2021/03/11 09:09:57;;;;;;;4.25;2.67;;;11.10;98.50;;;;;;5019978;28;20034;-74
2021/03/11 09:12:29;;;;;;;5.00;2.65;;;11.10;98.70;;;;;;5011436;28;20050;-74
2021/03/11 09:14:57;;;;;;;3.63;2.60;;;11.10;98.90;;;;;;5013510;28;20061;-74
2021/03/11 09:17:34;;;;;;;4.18;2.55;;;11.10;99.40;;;;;;5028683;28;20034;-73
2021/03/11 09:20:13;;;;;;;4.68;2.42;;;11.00;99.50;;;;;;5031766;28;20459;-73
2021/03/11 09:22:49;;;;;;;4.18;2.15;;;10.90;99.80;;;;;;5031768;28;20049;-73
2021/03/11 09:25:16;;;;;;;5.85;2.65;;;10.90;99.90;;;;;;5027501;28;20040;-73
2021/03/11 09:28:02;;;;;;;4.28;2.47;;;10.90;99.90;;;;;;5014468;28;20045;-74
2021/03/11 09:30:32;;;;;;;4.88;2.95;;;11.00;99.90;;;;;;5030321;28;20371;-74
2021/03/11 09:33:20;;;;;;;8.23;3.03;;;10.90;99.90;;;;;;5031468;28;20053;-74
2021/03/11 09:35:47;;;;;;;3.75;2.08;;;10.80;99.90;;;;;;5022634;28;20038;-75
2021/03/11 09:38:24;;;;;;;7.53;2.45;;;10.80;99.90;;;;;;5012237;28;20092;-72
2021/03/11 09:40:58;;;;;;;4.30;2.65;;;10.90;99.90;;;;;;5012293;28;20038;-74
2021/03/11 09:43:27;;;;;;;3.60;2.17;;;10.70;99.90;;;;;;5012559;28;20444;-73
2021/03/11 09:46:07;;;;;;;4.88;2.30;;;10.60;99.90;;;;;;5012680;28;20045;-74
2021/03/11 09:48:35;;;;;;;4.07;2.63;;;10.40;99.90;;;;;;5012305;28;20038;-74
2021/03/11 09:51:07;;;;;;;5.90;3.38;;;10.30;99.90;;;;;;5025584;28;20037;-74
2021/03/11 09:53:45;;;;;;;6.25;3.30;;;10.20;99.90;;;;;;5021718;28;20042;-74
2021/03/11 09:56:19;;;;;;;4.78;3.17;;;10.10;99.90;;;;;;5016518;28;20341;-74
2021/03/11 09:58:51;;;;;;;4.40;2.85;;;10.10;99.90;;;;;;5016464;28;20034;-76
2021/03/11 10:01:26;;;;;;;6.35;4.68;;;10.10;99.90;;;;;;5019978;28;20038;-73
2021/03/11 10:03:54;;;;;;;7.35;3.35;;;10.10;99.90;;;;;;5029127;28;20048;-73
2021/03/11 10:06:21;;;;;;;5.85;3.70;;;10.10;99.90;;;;;;5021194;28;20041;-73
2021/03/11 10:08:55;;;;;;;5.15;3.33;;;10.20;99.90;;;;;;5024791;28;20046;-74
2021/03/11 10:11:42;;;;;;;5.18;3.35;;;10.20;99.90;;;;;;5023814;28;20060;-73
2021/03/11 10:14:22;;;;;;;5.13;2.85;;;10.10;99.90;;;;;;5026012;28;20045;-73
2021/03/11 10:16:56;;;;;;;6.83;2.70;;;10.10;99.90;;;;;;5029240;28;20514;-73
2021/03/11 10:19:29;;;;;;;5.35;3.30;;;10.10;99.90;;;;;;5015379;28;20030;-74
2021/03/11 10:22:02;;;;;;;5.68;3.05;;;10.00;99.90;;;;;;5016334;28;20030;-74
2021/03/11 10:24:37;;;;;;;3.88;2.20;;;10.00;99.90;;;;;;5015333;28;20037;-74
2021/03/11 10:27:28;;;;;;;4.35;2.97;;;10.10;99.90;;;;;;5015847;28;20402;-74
2021/03/11 10:30:12;;;;;;;5.40;2.97;;;10.00;99.90;;;;;;5016958;28;20037;-74
2021/03/11 10:32:41;;;;;;;4.20;1.88;;;10.10;99.90;;;;;;5034484;28;20045;-75
2021/03/11 10:35:10;;;;;;;4.97;2.55;;;10.10;99.90;;;;;;5034547;28;20038;-74
2021/03/11 10:37:38;;;;;;;5.85;3.95;;;10.20;99.90;;;;;;5020690;28;20026;-75
2021/03/11 10:40:10;;;;;;;5.22;3.00;;;10.20;99.90;;;;;;5015619;28;20495;-74
2021/03/11 10:42:46;;;;;;;3.95;2.40;;;10.30;99.90;;;;;;5015543;28;20435;-74
2021/03/11 10:45:18;;;;;;;5.13;2.70;;;10.30;99.90;;;;;;5026935;28;20029;-74
2021/03/11 10:47:57;;;;;;;5.63;2.80;;;10.40;99.90;;;;;;5033794;28;20057;-73
2021/03/11 10:50:25;;;;;;;4.55;2.72;;;10.40;99.90;;;;;;5021611;28;20038;-73
2021/03/11 10:52:54;;;;;;;4.38;2.47;;;10.50;99.90;;;;;;5026365;28;20034;-73
2021/03/11 10:55:25;;;;;;;3.67;2.33;;;10.60;99.90;;;;;;5022135;28;20482;-73
2021/03/11 10:57:52;;;;;;;3.45;1.90;;;10.70;99.90;;;;;;5028235;28;20025;-74
2021/03/11 11:00:26;;;;;;;3.22;1.70;;;10.70;99.90;;;;;;5027592;28;20034;-73
2021/03/11 11:02:57;;;;;;;4.30;2.05;;;10.70;99.90;;;;;;5015216;28;20502;-73
2021/03/11 11:05:25;;;;;;;2.35;1.20;;;10.70;99.90;;;;;;5015132;28;20046;-73
2021/03/11 11:07:51;;;;;;;2.22;1.45;;;10.80;99.90;;;;;;5019290;28;20045;-73
2021/03/11 11:10:22;;;;;;;4.47;1.83;;;10.80;99.90;;;;;;5024685;28;20368;-73
2021/03/11 11:12:50;;;;;;;3.15;1.50;;;10.90;99.90;;;;;;5015292;28;20046;-73
2021/03/11 11:15:17;;;;;;;3.05;1.63;;;10.90;99.90;;;;;;5013627;28;20498;-73
2021/03/11 11:17:44;;;;;;;2.40;1.48;;;11.00;99.90;;;;;;5033773;28;20033;-74
2021/03/11 11:20:13;;;;;;;3.03;1.73;;;11.10;99.90;;;;;;5015951;28;20034;-74
2021/03/11 11:22:40;;;;;;;4.97;1.88;;;11.10;99.90;;;;;;5018290;28;20048;-74
2021/03/11 11:25:07;;;;;;;3.55;1.70;;;11.00;99.90;;;;;;5029012;28;20037;-74
2021/03/11 11:27:34;;;;;;;3.65;2.17;;;10.90;99.90;;;;;;5014210;28;20401;-74
2021/03/11 11:30:02;;;;;;;2.45;1.38;;;10.80;99.90;;;;;;5014977;28;20026;-75
2021/03/11 11:32:29;;;;;;;3.65;2.00;;;10.90;99.90;;;;;;5025478;28;20026;-74
2021/03/11 11:34:55;;;;;;;2.95;1.75;;;10.90;99.90;;;;;;5013167;28;20053;-74
2021/03/11 11:37:21;;;;;;;2.92;1.67;;;11.00;99.90;;;;;;5014197;28;20459;-74
2021/03/11 11:39:49;;;;;;;2.95;1.50;;;11.00;99.90;;;;;;5021476;28;20025;-74
2021/03/11 11:42:16;;;;;;;3.60;1.55;;;11.00;99.90;;;;;;5014446;28;20041;-72
2021/03/11 11:44:44;;;;;;;4.63;1.55;;;11.20;99.90;;;;;;5014149;28;20046;-73
2021/03/11 11:47:11;;;;;;;4.20;2.03;;;11.30;99.90;;;;;;5024806;28;20034;-72
2021/03/11 11:49:38;;;;;;;3.13;1.50;;;11.40;99.90;;;;;;5015302;28;20034;-72
2021/03/11 11:52:07;;;;;;;3.58;1.25;;;11.60;99.90;;;;;;5027235;28;20471;-74
2021/03/11 11:54:34;;;;;;;5.78;1.80;;;11.70;99.90;;;;;;5013956;28;20483;-74
2021/03/11 11:57:02;;;;;;;1.75;0.90;;;11.80;99.90;;;;;;5013670;28;20369;-74
2021/03/11 11:59:28;;;;;;;2.10;1.33;;;11.90;99.90;;;;;;5026709;28;20030;-75
2021/03/11 12:01:55;;;;;;;2.15;1.05;;;11.90;99.90;;;;;;5031431;28;20049;-74
2021/03/11 12:04:21;;;;;;;2.63;1.15;;;12.00;99.90;;;;;;5031998;28;20041;-73
2021/03/11 12:06:48;;;;;;;2.28;1.00;;;11.90;99.90;;;;;;5032191;28;20352;-74
2021/03/11 12:09:15;;;;;;;3.50;1.42;;;11.90;99.90;;;;;;5032215;28;20045;-73
2021/03/11 12:11:42;;;;;;;3.10;1.30;;;11.80;99.90;;;;;;5031184;28;20036;-73
2021/03/11 12:14:08;;;;;;;2.60;1.15;;;11.80;99.90;;;;;;5027337;28;20050;-72
2021/03/11 12:16:35;;;;;;;1.73;1.10;;;11.90;99.90;;;;;;5031468;28;20037;-73
2021/03/11 12:19:02;;;;;;;2.83;1.10;;;12.00;99.90;;;;;;5029180;28;20025;-74
2021/03/11 12:21:29;;;;;;;5.30;1.50;;;11.90;99.90;;;;;;5028502;28;20029;-73
2021/03/11 12:23:55;;;;;;;2.80;1.58;;;11.90;99.90;;;;;;5031006;28;20044;-73
2021/03/11 12:26:21;;;;;;;1.92;1.08;;;11.90;99.90;;;;;;5031048;28;20390;-74
2021/03/11 12:28:47;;;;;;;2.72;1.60;;;11.90;99.90;;;;;;5013915;28;20053;-72
2021/03/11 12:31:14;;;;;;;3.60;1.83;;;12.00;99.90;;;;;;5019250;28;20041;-73
2021/03/11 12:33:41;;;;;;;2.83;1.23;;;12.10;99.90;;;;;;5013244;28;20386;-87
2021/03/11 12:36:09;;;;;;;2.67;1.30;;;12.10;99.90;;;;;;5013597;28;20038;-71
2021/03/11 12:38:38;;;;;;;2.72;1.50;;;12.00;99.90;;;;;;5016622;28;20573;-71
2021/03/11 12:41:05;;;;;;;5.50;2.10;;;12.10;99.90;;;;;;5019943;28;20029;-72
2021/03/11 12:43:32;;;;;;;5.25;2.60;;;12.00;99.90;;;;;;5013020;28;20050;-72
2021/03/11 12:45:58;;;;;;;5.63;3.22;;;12.00;99.90;;;;;;5023081;28;20423;-72
2021/03/11 12:48:25;;;;;;;6.45;3.13;;;12.00;99.90;;;;;;5031053;28;20025;-71
2021/03/11 12:50:53;;;;;;;6.03;3.88;;;12.10;99.90;;;;;;5031340;28;20033;-72
2021/03/11 12:53:20;;;;;;;9.20;4.07;;;12.20;99.90;;;;;;5017374;28;20041;-72
2021/03/11 12:55:47;;;;;;;5.90;3.95;;;12.30;99.90;;;;;;5012823;28;20034;-72
2021/03/11 12:58:14;;;;;;;7.45;3.05;;;12.40;99.90;;;;;;5012747;28;20034;-72
2021/03/11 13:00:40;;;;;;;2.72;1.55;;;12.70;99.90;;;;;;5021036;28;20030;-72